Portada
METAR-TAF:

METAR-TAF

Aeropuertos :

Bandar Kangan, Irán

latitud: 27-49-14N, longitud: 52-21-08E, altitud: 662 m

Observación

El informe se hizo hace 5 horas y 44 minutos, a las 15:00 UTC
Viento 6 kt del suroeste
Temperatura 27°C
Humedad 28%
Presión 1011 hPa
Visibilidad 10 km o más
Escasas nubes a una altura de 3000 ft
Nubes dispersas a una altura de 20000 ft

METAR: OIBJ 201500Z 23006KT 9999 FEW030 SCT200 27/07 Q1011

Hora: 01:14 (20:44 UTC)


TAF: falta

Observaciones y pronósticos meteorológicos de más de 4000 aeropuertos (mensajes METAR y TAF).

Los puntos amarillos y rojos representan las estaciones disponibles.

Ponga el ratón en el punto deseado para ver el nombre de la estación.

Haga clic para ver las observaciones y los pronósticos meteorológicos.

Para cambiar el mapa : haga clic en los botones verdes con una cruz de color negro para hacer un zoom, en el botón verde con un guión para alejar o en las flechas verdes para mapas adyacentes.


METAR-TAF: